sensor_id;sensor_type;location;lat;lon;timestamp;P1;durP1;ratioP1;P2;durP2;ratioP2
52480;SDS011;38393;52.404;13.532;2023-07-13T00:01:17;8.25;;;3.85;;
52480;SDS011;38393;52.404;13.532;2023-07-13T00:03:42;7.35;;;4.28;;
52480;SDS011;38393;52.404;13.532;2023-07-13T00:06:08;7.05;;;3.90;;
52480;SDS011;38393;52.404;13.532;2023-07-13T00:08:34;5.70;;;3.85;;
52480;SDS011;38393;52.404;13.532;2023-07-13T00:11:00;5.47;;;3.75;;
52480;SDS011;38393;52.404;13.532;2023-07-13T00:13:26;8.50;;;3.85;;
52480;SDS011;38393;52.404;13.532;2023-07-13T00:15:52;25.00;;;5.63;;
52480;SDS011;38393;52.404;13.532;2023-07-13T00:18:19;18.55;;;5.00;;
52480;SDS011;38393;52.404;13.532;2023-07-13T00:20:44;36.58;;;4.63;;
52480;SDS011;38393;52.404;13.532;2023-07-13T00:23:10;8.27;;;4.47;;
52480;SDS011;38393;52.404;13.532;2023-07-13T00:25:36;9.45;;;4.10;;
52480;SDS011;38393;52.404;13.532;2023-07-13T00:28:02;14.93;;;3.60;;
52480;SDS011;38393;52.404;13.532;2023-07-13T00:30:28;11.90;;;4.00;;
52480;SDS011;38393;52.404;13.532;2023-07-13T00:32:53;6.95;;;3.55;;
52480;SDS011;38393;52.404;13.532;2023-07-13T00:35:19;8.88;;;3.97;;
52480;SDS011;38393;52.404;13.532;2023-07-13T00:37:44;7.15;;;3.88;;
52480;SDS011;38393;52.404;13.532;2023-07-13T00:40:11;9.38;;;3.63;;
52480;SDS011;38393;52.404;13.532;2023-07-13T00:42:38;8.57;;;3.88;;
52480;SDS011;38393;52.404;13.532;2023-07-13T00:46:10;7.63;;;3.92;;
52480;SDS011;38393;52.404;13.532;2023-07-13T00:47:53;5.93;;;3.33;;
52480;SDS011;38393;52.404;13.532;2023-07-13T00:50:22;8.90;;;3.85;;
52480;SDS011;38393;52.404;13.532;2023-07-13T00:52:50;6.70;;;3.75;;
52480;SDS011;38393;52.404;13.532;2023-07-13T00:55:18;5.97;;;3.58;;
52480;SDS011;38393;52.404;13.532;2023-07-13T00:57:45;5.47;;;3.65;;
52480;SDS011;38393;52.404;13.532;2023-07-13T01:00:11;5.35;;;3.53;;
52480;SDS011;38393;52.404;13.532;2023-07-13T01:02:39;7.05;;;4.38;;
52480;SDS011;38393;52.404;13.532;2023-07-13T01:05:10;7.60;;;4.50;;
52480;SDS011;38393;52.404;13.532;2023-07-13T01:07:38;9.85;;;4.50;;
52480;SDS011;38393;52.404;13.532;2023-07-13T01:10:06;7.18;;;4.43;;
52480;SDS011;38393;52.404;13.532;2023-07-13T01:12:32;7.25;;;4.75;;
52480;SDS011;38393;52.404;13.532;2023-07-13T01:14:58;6.53;;;4.35;;
52480;SDS011;38393;52.404;13.532;2023-07-13T01:17:25;6.55;;;4.93;;
52480;SDS011;38393;52.404;13.532;2023-07-13T01:19:52;8.52;;;4.97;;
52480;SDS011;38393;52.404;13.532;2023-07-13T01:22:18;11.27;;;5.43;;
52480;SDS011;38393;52.404;13.532;2023-07-13T01:24:45;9.30;;;5.57;;
52480;SDS011;38393;52.404;13.532;2023-07-13T01:27:13;9.38;;;4.72;;
52480;SDS011;38393;52.404;13.532;2023-07-13T01:29:41;8.68;;;4.57;;
52480;SDS011;38393;52.404;13.532;2023-07-13T01:32:09;9.38;;;4.63;;
52480;SDS011;38393;52.404;13.532;2023-07-13T01:34:37;6.63;;;4.72;;
52480;SDS011;38393;52.404;13.532;2023-07-13T01:37:03;7.80;;;4.57;;
52480;SDS011;38393;52.404;13.532;2023-07-13T01:39:30;7.30;;;4.53;;
52480;SDS011;38393;52.404;13.532;2023-07-13T01:41:56;6.47;;;4.20;;
52480;SDS011;38393;52.404;13.532;2023-07-13T01:44:22;7.88;;;4.20;;
52480;SDS011;38393;52.404;13.532;2023-07-13T01:46:47;8.50;;;4.38;;
52480;SDS011;38393;52.404;13.532;2023-07-13T01:49:13;7.32;;;4.70;;
52480;SDS011;38393;52.404;13.532;2023-07-13T01:51:39;7.32;;;4.32;;
52480;SDS011;38393;52.404;13.532;2023-07-13T01:54:04;6.50;;;4.38;;
52480;SDS011;38393;52.404;13.532;2023-07-13T01:56:29;8.77;;;4.28;;
52480;SDS011;38393;52.404;13.532;2023-07-13T01:58:55;7.28;;;4.43;;
52480;SDS011;38393;52.404;13.532;2023-07-13T02:01:21;11.45;;;4.47;;
52480;SDS011;38393;52.404;13.532;2023-07-13T02:03:47;8.50;;;4.35;;
52480;SDS011;38393;52.404;13.532;2023-07-13T02:06:12;10.40;;;4.68;;
52480;SDS011;38393;52.404;13.532;2023-07-13T02:08:40;7.78;;;4.85;;
52480;SDS011;38393;52.404;13.532;2023-07-13T02:11:06;7.63;;;4.50;;
52480;SDS011;38393;52.404;13.532;2023-07-13T02:13:32;7.63;;;4.95;;
52480;SDS011;38393;52.404;13.532;2023-07-13T02:15:57;6.55;;;4.97;;
52480;SDS011;38393;52.404;13.532;2023-07-13T02:18:23;7.40;;;4.72;;
52480;SDS011;38393;52.404;13.532;2023-07-13T02:20:48;8.82;;;4.82;;
52480;SDS011;38393;52.404;13.532;2023-07-13T02:23:14;8.82;;;4.63;;
52480;SDS011;38393;52.404;13.532;2023-07-13T02:25:39;10.18;;;4.90;;
52480;SDS011;38393;52.404;13.532;2023-07-13T02:28:05;7.35;;;4.78;;
52480;SDS011;38393;52.404;13.532;2023-07-13T02:30:30;7.32;;;4.95;;
52480;SDS011;38393;52.404;13.532;2023-07-13T02:32:56;11.43;;;5.45;;
52480;SDS011;38393;52.404;13.532;2023-07-13T02:35:22;7.72;;;5.22;;
52480;SDS011;38393;52.404;13.532;2023-07-13T02:37:48;9.63;;;5.15;;
52480;SDS011;38393;52.404;13.532;2023-07-13T02:40:14;8.27;;;5.00;;
52480;SDS011;38393;52.404;13.532;2023-07-13T02:42:39;7.35;;;4.82;;
52480;SDS011;38393;52.404;13.532;2023-07-13T02:45:06;7.15;;;4.50;;
52480;SDS011;38393;52.404;13.532;2023-07-13T02:47:32;8.73;;;4.60;;
52480;SDS011;38393;52.404;13.532;2023-07-13T02:49:58;9.40;;;4.85;;
52480;SDS011;38393;52.404;13.532;2023-07-13T02:52:24;7.97;;;4.72;;
52480;SDS011;38393;52.404;13.532;2023-07-13T02:54:50;10.85;;;4.93;;
52480;SDS011;38393;52.404;13.532;2023-07-13T02:57:15;7.07;;;4.20;;
52480;SDS011;38393;52.404;13.532;2023-07-13T02:59:41;9.18;;;4.40;;
52480;SDS011;38393;52.404;13.532;2023-07-13T03:02:07;9.00;;;4.55;;
52480;SDS011;38393;52.404;13.532;2023-07-13T03:04:34;6.18;;;4.50;;
52480;SDS011;38393;52.404;13.532;2023-07-13T03:07:03;6.10;;;4.00;;
52480;SDS011;38393;52.404;13.532;2023-07-13T03:09:30;8.25;;;4.20;;
52480;SDS011;38393;52.404;13.532;2023-07-13T03:11:56;7.15;;;4.20;;
52480;SDS011;38393;52.404;13.532;2023-07-13T03:14:22;9.30;;;4.45;;
52480;SDS011;38393;52.404;13.532;2023-07-13T03:16:47;6.35;;;4.18;;
52480;SDS011;38393;52.404;13.532;2023-07-13T03:19:13;6.15;;;3.88;;
52480;SDS011;38393;52.404;13.532;2023-07-13T03:21:38;8.48;;;4.63;;
52480;SDS011;38393;52.404;13.532;2023-07-13T03:24:04;9.45;;;4.75;;
52480;SDS011;38393;52.404;13.532;2023-07-13T03:26:30;6.88;;;4.40;;
52480;SDS011;38393;52.404;13.532;2023-07-13T03:28:55;6.55;;;4.00;;
52480;SDS011;38393;52.404;13.532;2023-07-13T03:31:22;8.00;;;4.18;;
52480;SDS011;38393;52.404;13.532;2023-07-13T03:33:53;6.68;;;4.07;;
52480;SDS011;38393;52.404;13.532;2023-07-13T03:36:20;5.72;;;4.00;;
52480;SDS011;38393;52.404;13.532;2023-07-13T03:38:51;9.35;;;4.40;;
52480;SDS011;38393;52.404;13.532;2023-07-13T03:41:21;8.40;;;4.72;;
52480;SDS011;38393;52.404;13.532;2023-07-13T03:43:47;8.07;;;4.32;;
52480;SDS011;38393;52.404;13.532;2023-07-13T03:46:13;6.97;;;3.75;;
52480;SDS011;38393;52.404;13.532;2023-07-13T03:48:40;7.50;;;4.20;;
52480;SDS011;38393;52.404;13.532;2023-07-13T03:51:07;10.43;;;4.63;;
52480;SDS011;38393;52.404;13.532;2023-07-13T03:53:34;8.48;;;4.22;;
52480;SDS011;38393;52.404;13.532;2023-07-13T03:56:03;6.15;;;4.28;;
52480;SDS011;38393;52.404;13.532;2023-07-13T03:58:33;7.55;;;4.30;;
52480;SDS011;38393;52.404;13.532;2023-07-13T04:01:04;8.05;;;4.55;;
52480;SDS011;38393;52.404;13.532;2023-07-13T04:03:31;6.57;;;4.40;;
52480;SDS011;38393;52.404;13.532;2023-07-13T04:05:58;8.50;;;4.40;;
52480;SDS011;38393;52.404;13.532;2023-07-13T04:08:32;5.55;;;4.00;;
52480;SDS011;38393;52.404;13.532;2023-07-13T04:10:59;6.25;;;4.07;;
52480;SDS011;38393;52.404;13.532;2023-07-13T04:13:25;7.72;;;4.25;;
52480;SDS011;38393;52.404;13.532;2023-07-13T04:15:51;8.55;;;5.13;;
52480;SDS011;38393;52.404;13.532;2023-07-13T04:18:18;8.40;;;4.22;;
52480;SDS011;38393;52.404;13.532;2023-07-13T04:20:44;7.53;;;4.10;;
52480;SDS011;38393;52.404;13.532;2023-07-13T04:23:14;8.27;;;4.38;;
52480;SDS011;38393;52.404;13.532;2023-07-13T04:25:43;7.93;;;3.88;;
52480;SDS011;38393;52.404;13.532;2023-07-13T04:28:09;6.85;;;4.32;;
52480;SDS011;38393;52.404;13.532;2023-07-13T04:30:35;10.63;;;4.70;;
52480;SDS011;38393;52.404;13.532;2023-07-13T04:33:00;11.40;;;4.65;;
52480;SDS011;38393;52.404;13.532;2023-07-13T04:35:26;6.40;;;4.15;;
52480;SDS011;38393;52.404;13.532;2023-07-13T04:37:52;7.13;;;3.95;;
52480;SDS011;38393;52.404;13.532;2023-07-13T04:40:17;7.43;;;3.97;;
52480;SDS011;38393;52.404;13.532;2023-07-13T04:42:43;7.18;;;4.25;;
52480;SDS011;38393;52.404;13.532;2023-07-13T04:45:10;6.35;;;4.10;;
52480;SDS011;38393;52.404;13.532;2023-07-13T04:47:36;10.52;;;4.40;;
52480;SDS011;38393;52.404;13.532;2023-07-13T04:50:02;5.72;;;4.22;;
52480;SDS011;38393;52.404;13.532;2023-07-13T04:52:27;9.20;;;4.50;;
52480;SDS011;38393;52.404;13.532;2023-07-13T04:54:53;6.20;;;4.03;;
52480;SDS011;38393;52.404;13.532;2023-07-13T04:57:18;8.60;;;4.30;;
52480;SDS011;38393;52.404;13.532;2023-07-13T04:59:44;16.45;;;4.70;;
52480;SDS011;38393;52.404;13.532;2023-07-13T05:02:09;8.48;;;4.05;;
52480;SDS011;38393;52.404;13.532;2023-07-13T05:04:35;6.80;;;4.00;;
52480;SDS011;38393;52.404;13.532;2023-07-13T05:07:00;7.60;;;4.43;;
52480;SDS011;38393;52.404;13.532;2023-07-13T05:09:26;9.52;;;4.47;;
52480;SDS011;38393;52.404;13.532;2023-07-13T05:11:51;7.85;;;4.15;;
52480;SDS011;38393;52.404;13.532;2023-07-13T05:14:17;8.20;;;4.20;;
52480;SDS011;38393;52.404;13.532;2023-07-13T05:16:42;6.35;;;4.05;;
52480;SDS011;38393;52.404;13.532;2023-07-13T05:19:08;7.72;;;4.30;;
52480;SDS011;38393;52.404;13.532;2023-07-13T05:21:34;6.10;;;3.85;;
52480;SDS011;38393;52.404;13.532;2023-07-13T05:23:59;10.27;;;3.92;;
52480;SDS011;38393;52.404;13.532;2023-07-13T05:26:25;8.50;;;4.03;;
52480;SDS011;38393;52.404;13.532;2023-07-13T05:28:50;5.75;;;4.00;;
52480;SDS011;38393;52.404;13.532;2023-07-13T05:31:16;5.40;;;3.35;;
52480;SDS011;38393;52.404;13.532;2023-07-13T05:33:41;6.15;;;3.78;;
52480;SDS011;38393;52.404;13.532;2023-07-13T05:36:07;6.65;;;3.63;;
52480;SDS011;38393;52.404;13.532;2023-07-13T05:38:33;9.70;;;3.78;;
52480;SDS011;38393;52.404;13.532;2023-07-13T05:40:58;8.80;;;3.40;;
52480;SDS011;38393;52.404;13.532;2023-07-13T05:43:24;7.20;;;3.40;;
52480;SDS011;38393;52.404;13.532;2023-07-13T05:45:52;6.43;;;3.33;;
52480;SDS011;38393;52.404;13.532;2023-07-13T05:48:18;5.57;;;3.25;;
52480;SDS011;38393;52.404;13.532;2023-07-13T05:50:44;5.47;;;3.05;;
52480;SDS011;38393;52.404;13.532;2023-07-13T05:53:09;5.78;;;3.13;;
52480;SDS011;38393;52.404;13.532;2023-07-13T05:55:40;5.72;;;2.95;;
52480;SDS011;38393;52.404;13.532;2023-07-13T05:58:09;5.75;;;3.03;;
52480;SDS011;38393;52.404;13.532;2023-07-13T06:00:35;8.88;;;2.88;;
52480;SDS011;38393;52.404;13.532;2023-07-13T06:03:01;6.03;;;2.80;;
52480;SDS011;38393;52.404;13.532;2023-07-13T06:05:26;6.25;;;2.63;;
52480;SDS011;38393;52.404;13.532;2023-07-13T06:07:53;5.45;;;2.67;;
52480;SDS011;38393;52.404;13.532;2023-07-13T06:10:19;9.07;;;2.72;;
52480;SDS011;38393;52.404;13.532;2023-07-13T06:12:44;5.63;;;2.50;;
52480;SDS011;38393;52.404;13.532;2023-07-13T06:15:10;3.97;;;2.38;;
52480;SDS011;38393;52.404;13.532;2023-07-13T06:17:36;7.53;;;2.53;;
52480;SDS011;38393;52.404;13.532;2023-07-13T06:20:01;5.55;;;2.60;;
52480;SDS011;38393;52.404;13.532;2023-07-13T06:22:27;6.78;;;2.55;;
52480;SDS011;38393;52.404;13.532;2023-07-13T06:24:52;8.77;;;2.90;;
52480;SDS011;38393;52.404;13.532;2023-07-13T06:27:18;6.43;;;2.88;;
52480;SDS011;38393;52.404;13.532;2023-07-13T06:29:43;5.47;;;2.10;;
52480;SDS011;38393;52.404;13.532;2023-07-13T06:32:10;4.53;;;2.33;;
52480;SDS011;38393;52.404;13.532;2023-07-13T06:34:35;5.70;;;2.15;;
52480;SDS011;38393;52.404;13.532;2023-07-13T06:37:01;7.15;;;2.35;;
52480;SDS011;38393;52.404;13.532;2023-07-13T06:39:26;4.15;;;2.17;;
52480;SDS011;38393;52.404;13.532;2023-07-13T06:41:52;4.07;;;2.40;;
52480;SDS011;38393;52.404;13.532;2023-07-13T06:44:17;3.97;;;2.08;;
52480;SDS011;38393;52.404;13.532;2023-07-13T06:46:42;3.42;;;2.00;;
52480;SDS011;38393;52.404;13.532;2023-07-13T06:49:08;3.47;;;2.10;;
52480;SDS011;38393;52.404;13.532;2023-07-13T06:51:34;5.10;;;2.28;;
52480;SDS011;38393;52.404;13.532;2023-07-13T06:54:00;5.80;;;2.50;;
52480;SDS011;38393;52.404;13.532;2023-07-13T06:56:25;4.30;;;2.03;;
52480;SDS011;38393;52.404;13.532;2023-07-13T06:58:50;5.45;;;2.20;;
52480;SDS011;38393;52.404;13.532;2023-07-13T07:01:16;5.65;;;2.17;;
52480;SDS011;38393;52.404;13.532;2023-07-13T07:03:41;3.53;;;2.17;;
52480;SDS011;38393;52.404;13.532;2023-07-13T07:06:15;3.42;;;1.90;;
52480;SDS011;38393;52.404;13.532;2023-07-13T07:08:42;5.45;;;2.28;;
52480;SDS011;38393;52.404;13.532;2023-07-13T07:11:10;3.88;;;2.03;;
52480;SDS011;38393;52.404;13.532;2023-07-13T07:13:37;2.70;;;1.92;;
52480;SDS011;38393;52.404;13.532;2023-07-13T07:16:03;5.97;;;2.25;;
52480;SDS011;38393;52.404;13.532;2023-07-13T07:18:28;3.67;;;1.83;;
52480;SDS011;38393;52.404;13.532;2023-07-13T07:20:54;3.65;;;2.30;;
52480;SDS011;38393;52.404;13.532;2023-07-13T07:23:19;6.53;;;2.10;;
52480;SDS011;38393;52.404;13.532;2023-07-13T07:25:45;4.28;;;1.70;;
52480;SDS011;38393;52.404;13.532;2023-07-13T07:28:11;7.18;;;1.63;;
52480;SDS011;38393;52.404;13.532;2023-07-13T07:30:41;4.32;;;1.83;;
52480;SDS011;38393;52.404;13.532;2023-07-13T07:33:08;3.70;;;1.80;;
52480;SDS011;38393;52.404;13.532;2023-07-13T07:35:33;5.57;;;1.80;;
52480;SDS011;38393;52.404;13.532;2023-07-13T07:37:58;3.70;;;1.92;;
52480;SDS011;38393;52.404;13.532;2023-07-13T07:40:24;4.05;;;2.00;;
52480;SDS011;38393;52.404;13.532;2023-07-13T07:42:50;5.03;;;1.98;;
52480;SDS011;38393;52.404;13.532;2023-07-13T07:45:15;5.10;;;1.55;;
52480;SDS011;38393;52.404;13.532;2023-07-13T07:47:41;5.13;;;2.10;;
52480;SDS011;38393;52.404;13.532;2023-07-13T07:50:06;6.70;;;2.15;;
52480;SDS011;38393;52.404;13.532;2023-07-13T07:52:32;3.22;;;2.00;;
52480;SDS011;38393;52.404;13.532;2023-07-13T07:54:58;5.70;;;1.80;;
52480;SDS011;38393;52.404;13.532;2023-07-13T07:57:23;2.25;;;1.60;;
52480;SDS011;38393;52.404;13.532;2023-07-13T07:59:48;3.63;;;1.63;;
52480;SDS011;38393;52.404;13.532;2023-07-13T08:02:14;4.68;;;1.63;;
52480;SDS011;38393;52.404;13.532;2023-07-13T08:04:39;2.70;;;1.70;;
52480;SDS011;38393;52.404;13.532;2023-07-13T08:07:05;3.35;;;1.80;;
52480;SDS011;38393;52.404;13.532;2023-07-13T08:09:31;2.85;;;1.40;;
52480;SDS011;38393;52.404;13.532;2023-07-13T08:11:56;3.17;;;1.60;;
52480;SDS011;38393;52.404;13.532;2023-07-13T08:14:22;3.25;;;1.85;;
52480;SDS011;38393;52.404;13.532;2023-07-13T08:16:47;5.75;;;1.67;;
52480;SDS011;38393;52.404;13.532;2023-07-13T08:19:13;4.13;;;1.73;;
52480;SDS011;38393;52.404;13.532;2023-07-13T08:21:38;4.07;;;1.75;;
52480;SDS011;38393;52.404;13.532;2023-07-13T08:24:04;4.65;;;1.60;;
52480;SDS011;38393;52.404;13.532;2023-07-13T08:26:29;3.80;;;1.70;;
52480;SDS011;38393;52.404;13.532;2023-07-13T08:28:55;5.95;;;1.88;;
52480;SDS011;38393;52.404;13.532;2023-07-13T08:31:20;5.80;;;1.83;;
52480;SDS011;38393;52.404;13.532;2023-07-13T08:33:46;5.47;;;1.90;;
52480;SDS011;38393;52.404;13.532;2023-07-13T08:36:11;4.55;;;1.80;;
52480;SDS011;38393;52.404;13.532;2023-07-13T08:38:37;4.63;;;1.70;;
52480;SDS011;38393;52.404;13.532;2023-07-13T08:41:09;2.85;;;1.65;;
52480;SDS011;38393;52.404;13.532;2023-07-13T08:43:37;3.60;;;1.60;;
52480;SDS011;38393;52.404;13.532;2023-07-13T08:46:16;6.60;;;1.98;;
52480;SDS011;38393;52.404;13.532;2023-07-13T08:48:49;2.42;;;1.63;;
52480;SDS011;38393;52.404;13.532;2023-07-13T08:54:49;3.28;;;1.70;;
52480;SDS011;38393;52.404;13.532;2023-07-13T08:57:00;4.63;;;1.90;;
52480;SDS011;38393;52.404;13.532;2023-07-13T08:59:35;3.17;;;1.58;;
52480;SDS011;38393;52.404;13.532;2023-07-13T09:04:54;5.50;;;2.08;;
52480;SDS011;38393;52.404;13.532;2023-07-13T09:07:51;6.50;;;1.90;;
52480;SDS011;38393;52.404;13.532;2023-07-13T09:10:20;4.22;;;2.20;;
52480;SDS011;38393;52.404;13.532;2023-07-13T09:15:41;2.67;;;2.00;;
52480;SDS011;38393;52.404;13.532;2023-07-13T09:18:10;5.90;;;2.00;;
52480;SDS011;38393;52.404;13.532;2023-07-13T09:20:53;4.43;;;2.05;;
52480;SDS011;38393;52.404;13.532;2023-07-13T09:23:23;3.67;;;1.90;;
52480;SDS011;38393;52.404;13.532;2023-07-13T09:25:53;3.80;;;2.00;;
52480;SDS011;38393;52.404;13.532;2023-07-13T09:28:27;5.57;;;1.92;;
52480;SDS011;38393;52.404;13.532;2023-07-13T09:33:31;3.85;;;2.15;;
52480;SDS011;38393;52.404;13.532;2023-07-13T09:35:59;4.00;;;2.10;;
52480;SDS011;38393;52.404;13.532;2023-07-13T09:38:28;6.10;;;2.38;;
52480;SDS011;38393;52.404;13.532;2023-07-13T09:44:00;7.30;;;2.10;;
52480;SDS011;38393;52.404;13.532;2023-07-13T09:46:33;6.07;;;2.22;;
52480;SDS011;38393;52.404;13.532;2023-07-13T09:48:59;5.13;;;2.25;;
52480;SDS011;38393;52.404;13.532;2023-07-13T09:51:24;4.65;;;1.88;;
52480;SDS011;38393;52.404;13.532;2023-07-13T09:53:50;4.97;;;2.15;;
52480;SDS011;38393;52.404;13.532;2023-07-13T09:56:23;2.65;;;2.00;;
52480;SDS011;38393;52.404;13.532;2023-07-13T09:58:51;4.30;;;2.00;;
52480;SDS011;38393;52.404;13.532;2023-07-13T10:01:17;4.78;;;1.92;;
52480;SDS011;38393;52.404;13.532;2023-07-13T10:03:57;6.57;;;1.90;;
52480;SDS011;38393;52.404;13.532;2023-07-13T10:06:23;6.07;;;2.85;;
52480;SDS011;38393;52.404;13.532;2023-07-13T10:08:49;7.18;;;2.70;;
52480;SDS011;38393;52.404;13.532;2023-07-13T10:13:50;6.47;;;2.33;;
52480;SDS011;38393;52.404;13.532;2023-07-13T10:16:20;4.93;;;2.38;;
52480;SDS011;38393;52.404;13.532;2023-07-13T10:18:51;4.07;;;2.20;;
52480;SDS011;38393;52.404;13.532;2023-07-13T10:21:21;5.60;;;2.13;;
52480;SDS011;38393;52.404;13.532;2023-07-13T10:23:55;8.38;;;2.40;;
52480;SDS011;38393;52.404;13.532;2023-07-13T10:26:27;4.88;;;2.50;;
52480;SDS011;38393;52.404;13.532;2023-07-13T10:28:57;4.05;;;2.45;;
52480;SDS011;38393;52.404;13.532;2023-07-13T10:31:28;5.28;;;2.60;;
52480;SDS011;38393;52.404;13.532;2023-07-13T10:33:56;5.15;;;2.72;;
52480;SDS011;38393;52.404;13.532;2023-07-13T10:36:33;6.97;;;2.70;;
52480;SDS011;38393;52.404;13.532;2023-07-13T10:39:07;12.80;;;2.90;;
52480;SDS011;38393;52.404;13.532;2023-07-13T10:41:40;4.93;;;3.10;;
52480;SDS011;38393;52.404;13.532;2023-07-13T10:44:11;9.55;;;3.03;;
52480;SDS011;38393;52.404;13.532;2023-07-13T10:46:44;4.75;;;2.70;;
52480;SDS011;38393;52.404;13.532;2023-07-13T10:49:11;7.82;;;3.13;;
52480;SDS011;38393;52.404;13.532;2023-07-13T10:51:37;11.43;;;2.92;;
52480;SDS011;38393;52.404;13.532;2023-07-13T10:54:11;6.15;;;2.90;;
52480;SDS011;38393;52.404;13.532;2023-07-13T10:56:42;4.28;;;2.63;;
52480;SDS011;38393;52.404;13.532;2023-07-13T10:59:18;6.03;;;2.88;;
52480;SDS011;38393;52.404;13.532;2023-07-13T11:04:21;7.20;;;2.90;;
52480;SDS011;38393;52.404;13.532;2023-07-13T11:06:50;4.07;;;2.70;;
52480;SDS011;38393;52.404;13.532;2023-07-13T11:09:37;7.60;;;3.20;;
52480;SDS011;38393;52.404;13.532;2023-07-13T11:20:08;4.35;;;2.65;;
52480;SDS011;38393;52.404;13.532;2023-07-13T11:22:47;5.97;;;2.90;;
52480;SDS011;38393;52.404;13.532;2023-07-13T11:27:45;9.55;;;2.83;;
52480;SDS011;38393;52.404;13.532;2023-07-13T11:30:23;6.70;;;3.22;;
52480;SDS011;38393;52.404;13.532;2023-07-13T11:33:02;9.73;;;2.75;;
52480;SDS011;38393;52.404;13.532;2023-07-13T11:35:37;6.65;;;2.92;;
52480;SDS011;38393;52.404;13.532;2023-07-13T11:38:22;5.32;;;2.70;;
52480;SDS011;38393;52.404;13.532;2023-07-13T11:40:55;5.85;;;2.83;;
52480;SDS011;38393;52.404;13.532;2023-07-13T11:43:21;6.10;;;2.42;;
52480;SDS011;38393;52.404;13.532;2023-07-13T11:45:50;4.75;;;2.78;;
52480;SDS011;38393;52.404;13.532;2023-07-13T11:48:18;7.63;;;2.65;;
52480;SDS011;38393;52.404;13.532;2023-07-13T11:50:49;6.75;;;2.70;;
52480;SDS011;38393;52.404;13.532;2023-07-13T11:53:20;4.82;;;2.70;;
52480;SDS011;38393;52.404;13.532;2023-07-13T11:55:46;5.88;;;2.47;;
52480;SDS011;38393;52.404;13.532;2023-07-13T11:58:19;5.60;;;2.60;;
52480;SDS011;38393;52.404;13.532;2023-07-13T12:00:48;8.00;;;2.50;;
52480;SDS011;38393;52.404;13.532;2023-07-13T12:03:17;5.40;;;2.65;;
52480;SDS011;38393;52.404;13.532;2023-07-13T12:05:55;7.28;;;2.78;;
52480;SDS011;38393;52.404;13.532;2023-07-13T12:08:24;9.77;;;2.45;;
52480;SDS011;38393;52.404;13.532;2023-07-13T12:10:56;3.80;;;2.42;;
52480;SDS011;38393;52.404;13.532;2023-07-13T12:13:29;3.35;;;2.25;;
52480;SDS011;38393;52.404;13.532;2023-07-13T12:16:01;4.55;;;2.40;;
52480;SDS011;38393;52.404;13.532;2023-07-13T12:18:30;10.25;;;2.58;;
52480;SDS011;38393;52.404;13.532;2023-07-13T12:20:57;9.40;;;2.65;;
52480;SDS011;38393;52.404;13.532;2023-07-13T12:23:30;9.02;;;2.47;;
52480;SDS011;38393;52.404;13.532;2023-07-13T12:25:58;3.83;;;2.70;;
52480;SDS011;38393;52.404;13.532;2023-07-13T12:28:31;5.68;;;2.50;;
52480;SDS011;38393;52.404;13.532;2023-07-13T12:31:01;9.63;;;2.17;;
52480;SDS011;38393;52.404;13.532;2023-07-13T12:33:28;4.82;;;2.10;;
52480;SDS011;38393;52.404;13.532;2023-07-13T12:35:56;5.30;;;1.90;;
52480;SDS011;38393;52.404;13.532;2023-07-13T12:38:24;9.95;;;2.42;;
52480;SDS011;38393;52.404;13.532;2023-07-13T12:40:50;4.28;;;2.20;;
52480;SDS011;38393;52.404;13.532;2023-07-13T12:43:17;8.07;;;2.05;;
52480;SDS011;38393;52.404;13.532;2023-07-13T12:45:59;7.85;;;2.40;;
52480;SDS011;38393;52.404;13.532;2023-07-13T12:48:41;8.52;;;2.38;;
52480;SDS011;38393;52.404;13.532;2023-07-13T12:51:13;6.05;;;2.20;;
52480;SDS011;38393;52.404;13.532;2023-07-13T12:53:47;5.57;;;2.17;;
52480;SDS011;38393;52.404;13.532;2023-07-13T12:56:19;5.07;;;2.10;;
52480;SDS011;38393;52.404;13.532;2023-07-13T12:58:48;5.00;;;2.10;;
52480;SDS011;38393;52.404;13.532;2023-07-13T13:01:19;3.95;;;2.00;;
52480;SDS011;38393;52.404;13.532;2023-07-13T13:03:49;4.60;;;2.13;;
52480;SDS011;38393;52.404;13.532;2023-07-13T13:08:48;4.43;;;2.20;;
52480;SDS011;38393;52.404;13.532;2023-07-13T13:11:15;5.25;;;1.85;;
52480;SDS011;38393;52.404;13.532;2023-07-13T13:13:42;3.55;;;2.05;;
52480;SDS011;38393;52.404;13.532;2023-07-13T13:16:09;7.50;;;2.33;;
52480;SDS011;38393;52.404;13.532;2023-07-13T13:18:39;8.40;;;1.83;;
52480;SDS011;38393;52.404;13.532;2023-07-13T13:21:05;10.00;;;2.20;;
52480;SDS011;38393;52.404;13.532;2023-07-13T13:23:30;4.88;;;2.25;;
52480;SDS011;38393;52.404;13.532;2023-07-13T13:25:56;5.35;;;2.10;;
52480;SDS011;38393;52.404;13.532;2023-07-13T13:28:22;9.13;;;2.00;;
52480;SDS011;38393;52.404;13.532;2023-07-13T13:30:49;9.45;;;1.92;;
52480;SDS011;38393;52.404;13.532;2023-07-13T13:33:16;3.45;;;1.70;;
52480;SDS011;38393;52.404;13.532;2023-07-13T13:35:43;7.28;;;1.90;;
52480;SDS011;38393;52.404;13.532;2023-07-13T13:38:16;7.13;;;1.85;;
52480;SDS011;38393;52.404;13.532;2023-07-13T13:40:44;6.57;;;1.85;;
52480;SDS011;38393;52.404;13.532;2023-07-13T13:43:24;10.95;;;2.03;;
52480;SDS011;38393;52.404;13.532;2023-07-13T13:45:52;2.53;;;1.50;;
52480;SDS011;38393;52.404;13.532;2023-07-13T13:48:31;4.88;;;1.63;;
52480;SDS011;38393;52.404;13.532;2023-07-13T13:50:59;4.38;;;1.98;;
52480;SDS011;38393;52.404;13.532;2023-07-13T13:53:25;4.43;;;2.05;;
52480;SDS011;38393;52.404;13.532;2023-07-13T13:55:51;3.55;;;1.65;;
52480;SDS011;38393;52.404;13.532;2023-07-13T13:58:18;4.40;;;2.05;;
52480;SDS011;38393;52.404;13.532;2023-07-13T14:00:43;9.60;;;2.08;;
52480;SDS011;38393;52.404;13.532;2023-07-13T14:03:17;4.20;;;1.60;;
52480;SDS011;38393;52.404;13.532;2023-07-13T14:05:44;4.53;;;1.90;;
52480;SDS011;38393;52.404;13.532;2023-07-13T14:08:12;4.82;;;1.95;;
52480;SDS011;38393;52.404;13.532;2023-07-13T14:10:41;5.93;;;1.60;;
52480;SDS011;38393;52.404;13.532;2023-07-13T14:13:07;3.25;;;1.90;;
52480;SDS011;38393;52.404;13.532;2023-07-13T14:15:48;4.93;;;1.77;;
52480;SDS011;38393;52.404;13.532;2023-07-13T14:18:13;3.85;;;1.58;;
52480;SDS011;38393;52.404;13.532;2023-07-13T14:20:43;5.65;;;1.80;;
52480;SDS011;38393;52.404;13.532;2023-07-13T14:23:12;4.00;;;2.33;;
52480;SDS011;38393;52.404;13.532;2023-07-13T14:25:39;5.05;;;1.70;;
52480;SDS011;38393;52.404;13.532;2023-07-13T14:28:26;5.97;;;1.85;;
52480;SDS011;38393;52.404;13.532;2023-07-13T14:30:51;4.63;;;1.75;;
52480;SDS011;38393;52.404;13.532;2023-07-13T14:33:19;6.15;;;1.90;;
52480;SDS011;38393;52.404;13.532;2023-07-13T14:35:45;4.32;;;1.90;;
52480;SDS011;38393;52.404;13.532;2023-07-13T14:38:13;2.47;;;1.45;;
52480;SDS011;38393;52.404;13.532;2023-07-13T14:40:41;6.47;;;2.08;;
52480;SDS011;38393;52.404;13.532;2023-07-13T14:43:11;4.53;;;1.58;;
52480;SDS011;38393;52.404;13.532;2023-07-13T14:45:39;4.90;;;1.92;;
52480;SDS011;38393;52.404;13.532;2023-07-13T14:48:12;5.53;;;1.73;;
52480;SDS011;38393;52.404;13.532;2023-07-13T14:50:44;5.25;;;1.60;;
52480;SDS011;38393;52.404;13.532;2023-07-13T14:53:11;3.65;;;1.88;;
52480;SDS011;38393;52.404;13.532;2023-07-13T14:55:37;4.18;;;1.60;;
52480;SDS011;38393;52.404;13.532;2023-07-13T14:58:03;4.88;;;1.50;;
52480;SDS011;38393;52.404;13.532;2023-07-13T15:00:29;2.88;;;1.40;;
52480;SDS011;38393;52.404;13.532;2023-07-13T15:02:56;5.13;;;1.60;;
52480;SDS011;38393;52.404;13.532;2023-07-13T15:05:25;3.78;;;1.40;;
52480;SDS011;38393;52.404;13.532;2023-07-13T15:07:54;3.90;;;1.52;;
52480;SDS011;38393;52.404;13.532;2023-07-13T15:10:25;3.38;;;1.60;;